sensor_id;sensor_type;location;lat;lon;timestamp;pressure;altitude;pressure_sealevel;temperature;humidity
65666;BME280;52365;47.464;18.976;2022-09-09T00:00:26;99503.59;;;21.01;70.02
65666;BME280;52365;47.464;18.976;2022-09-09T00:01:15;99500.34;;;20.89;69.29
65666;BME280;52365;47.464;18.976;2022-09-09T00:03:47;99495.44;;;20.74;73.31
65666;BME280;52365;47.464;18.976;2022-09-09T00:05:19;99500.78;;;21.48;66.96
65666;BME280;52365;47.464;18.976;2022-09-09T00:06:13;99499.06;;;21.24;68.56
65666;BME280;52365;47.464;18.976;2022-09-09T00:07:52;99498.81;;;21.15;69.05
65666;BME280;52365;47.464;18.976;2022-09-09T00:09:18;99485.91;;;20.68;70.21
65666;BME280;52365;47.464;18.976;2022-09-09T00:10:16;99487.50;;;21.18;68.64
65666;BME280;52365;47.464;18.976;2022-09-09T00:10:58;99496.38;;;21.11;67.81
65666;BME280;52365;47.464;18.976;2022-09-09T00:11:52;99493.25;;;21.07;69.27
65666;BME280;52365;47.464;18.976;2022-09-09T00:13:39;99490.63;;;20.27;71.91
65666;BME280;52365;47.464;18.976;2022-09-09T00:14:25;99491.78;;;20.58;70.87
65666;BME280;52365;47.464;18.976;2022-09-09T00:15:19;99499.50;;;20.60;70.73
65666;BME280;52365;47.464;18.976;2022-09-09T00:16:09;99500.03;;;20.93;70.46
65666;BME280;52365;47.464;18.976;2022-09-09T00:16:54;99499.06;;;20.56;71.87
65666;BME280;52365;47.464;18.976;2022-09-09T00:18:25;99508.44;;;20.47;71.67
65666;BME280;52365;47.464;18.976;2022-09-09T00:19:48;99517.19;;;20.46;71.58
65666;BME280;52365;47.464;18.976;2022-09-09T00:21:03;99516.34;;;20.11;74.55
65666;BME280;52365;47.464;18.976;2022-09-09T00:21:47;99513.69;;;20.19;74.54
65666;BME280;52365;47.464;18.976;2022-09-09T00:22:28;99502.75;;;20.05;74.28
65666;BME280;52365;47.464;18.976;2022-09-09T00:23:30;99505.37;;;20.37;73.73
65666;BME280;52365;47.464;18.976;2022-09-09T00:24:55;99508.56;;;20.89;71.15
65666;BME280;52365;47.464;18.976;2022-09-09T00:25:45;99508.78;;;20.91;70.69
65666;BME280;52365;47.464;18.976;2022-09-09T00:26:39;99509.97;;;20.82;70.91
65666;BME280;52365;47.464;18.976;2022-09-09T00:27:39;99499.50;;;20.60;71.92
65666;BME280;52365;47.464;18.976;2022-09-09T00:28:20;99505.87;;;20.76;71.44
65666;BME280;52365;47.464;18.976;2022-09-09T00:30:40;99508.09;;;20.77;71.10
65666;BME280;52365;47.464;18.976;2022-09-09T00:31:21;99499.94;;;20.85;71.33
65666;BME280;52365;47.464;18.976;2022-09-09T00:32:11;99496.91;;;20.75;71.74
65666;BME280;52365;47.464;18.976;2022-09-09T00:32:50;99499.88;;;20.77;72.32
65666;BME280;52365;47.464;18.976;2022-09-09T00:33:30;99509.69;;;21.07;70.92
65666;BME280;52365;47.464;18.976;2022-09-09T00:34:13;99505.66;;;20.87;70.44
65666;BME280;52365;47.464;18.976;2022-09-09T00:35:16;99509.25;;;20.82;71.69
65666;BME280;52365;47.464;18.976;2022-09-09T00:35:56;99513.72;;;20.93;71.32
65666;BME280;52365;47.464;18.976;2022-09-09T00:36:34;99501.91;;;20.37;71.63
65666;BME280;52365;47.464;18.976;2022-09-09T00:37:11;99510.03;;;20.56;72.00
65666;BME280;52365;47.464;18.976;2022-09-09T00:37:48;99512.53;;;20.67;72.24
65666;BME280;52365;47.464;18.976;2022-09-09T00:38:38;99511.56;;;20.78;72.60
65666;BME280;52365;47.464;18.976;2022-09-09T00:39:46;99506.22;;;20.72;72.39
65666;BME280;52365;47.464;18.976;2022-09-09T00:40:34;99508.03;;;20.56;71.69
65666;BME280;52365;47.464;18.976;2022-09-09T00:41:17;99507.16;;;20.61;72.91
65666;BME280;52365;47.464;18.976;2022-09-09T00:42:43;99518.13;;;20.61;73.00
65666;BME280;52365;47.464;18.976;2022-09-09T00:43:28;99514.00;;;20.68;72.68
65666;BME280;52365;47.464;18.976;2022-09-09T00:44:59;99512.09;;;20.63;72.99
65666;BME280;52365;47.464;18.976;2022-09-09T00:47:53;99515.69;;;20.18;73.41
65666;BME280;52365;47.464;18.976;2022-09-09T00:51:15;99511.50;;;20.30;72.79
65666;BME280;52365;47.464;18.976;2022-09-09T00:53:22;99513.69;;;20.58;72.57
65666;BME280;52365;47.464;18.976;2022-09-09T00:55:41;99508.22;;;20.58;72.30
65666;BME280;52365;47.464;18.976;2022-09-09T00:56:37;99510.09;;;20.10;73.05
65666;BME280;52365;47.464;18.976;2022-09-09T00:57:30;99523.38;;;20.46;74.06
65666;BME280;52365;47.464;18.976;2022-09-09T00:58:08;99526.22;;;20.67;72.51
65666;BME280;52365;47.464;18.976;2022-09-09T00:59:07;99515.63;;;20.50;72.27
65666;BME280;52365;47.464;18.976;2022-09-09T00:59:51;99518.75;;;20.54;72.87
65666;BME280;52365;47.464;18.976;2022-09-09T01:00:30;99515.50;;;20.56;73.48
65666;BME280;52365;47.464;18.976;2022-09-09T01:01:12;99518.44;;;20.31;72.71
65666;BME280;52365;47.464;18.976;2022-09-09T01:01:48;99516.66;;;20.34;72.77
65666;BME280;52365;47.464;18.976;2022-09-09T01:02:28;99530.78;;;20.51;72.46
65666;BME280;52365;47.464;18.976;2022-09-09T01:04:24;99528.97;;;20.54;73.39
65666;BME280;52365;47.464;18.976;2022-09-09T01:05:12;99538.00;;;20.75;72.14
65666;BME280;52365;47.464;18.976;2022-09-09T01:06:55;99532.75;;;20.64;72.23
65666;BME280;52365;47.464;18.976;2022-09-09T01:07:36;99543.47;;;20.75;71.70
65666;BME280;52365;47.464;18.976;2022-09-09T01:09:51;99533.91;;;20.42;73.08
65666;BME280;52365;47.464;18.976;2022-09-09T01:10:39;99526.63;;;20.31;73.17
65666;BME280;52365;47.464;18.976;2022-09-09T01:11:23;99535.25;;;20.09;74.26
65666;BME280;52365;47.464;18.976;2022-09-09T01:12:55;99544.84;;;20.42;73.38
65666;BME280;52365;47.464;18.976;2022-09-09T01:13:35;99533.25;;;20.36;74.11
65666;BME280;52365;47.464;18.976;2022-09-09T01:14:40;99535.34;;;19.90;75.53
65666;BME280;52365;47.464;18.976;2022-09-09T01:15:22;99532.53;;;20.22;75.40
65666;BME280;52365;47.464;18.976;2022-09-09T01:16:02;99531.69;;;20.41;74.79
65666;BME280;52365;47.464;18.976;2022-09-09T01:16:40;99530.53;;;20.36;74.08
65666;BME280;52365;47.464;18.976;2022-09-09T01:17:48;99525.69;;;20.42;73.69
65666;BME280;52365;47.464;18.976;2022-09-09T01:18:29;99533.06;;;20.47;73.20
65666;BME280;52365;47.464;18.976;2022-09-09T01:19:10;99530.75;;;20.38;72.96
65666;BME280;52365;47.464;18.976;2022-09-09T01:20:02;99531.06;;;20.34;73.07
65666;BME280;52365;47.464;18.976;2022-09-09T01:23:20;99539.69;;;20.38;73.64
65666;BME280;52365;47.464;18.976;2022-09-09T01:24:33;99534.41;;;20.27;73.33
65666;BME280;52365;47.464;18.976;2022-09-09T01:25:29;99539.47;;;20.23;73.60
65666;BME280;52365;47.464;18.976;2022-09-09T01:27:02;99544.13;;;20.15;74.65
65666;BME280;52365;47.464;18.976;2022-09-09T01:27:42;99545.59;;;20.29;75.20
65666;BME280;52365;47.464;18.976;2022-09-09T01:28:22;99549.38;;;20.66;72.62
65666;BME280;52365;47.464;18.976;2022-09-09T01:29:01;99545.56;;;20.96;71.31
65666;BME280;52365;47.464;18.976;2022-09-09T01:29:37;99547.31;;;20.59;71.50
65666;BME280;52365;47.464;18.976;2022-09-09T01:30:16;99542.84;;;20.29;72.72
65666;BME280;52365;47.464;18.976;2022-09-09T01:30:55;99548.91;;;19.96;74.01
65666;BME280;52365;47.464;18.976;2022-09-09T01:31:37;99547.47;;;20.21;73.95
65666;BME280;52365;47.464;18.976;2022-09-09T01:32:45;99544.31;;;20.04;73.94
65666;BME280;52365;47.464;18.976;2022-09-09T01:33:22;99547.56;;;20.02;74.09
65666;BME280;52365;47.464;18.976;2022-09-09T01:33:58;99537.03;;;19.93;75.41
65666;BME280;52365;47.464;18.976;2022-09-09T01:34:38;99537.16;;;20.14;75.17
65666;BME280;52365;47.464;18.976;2022-09-09T01:35:42;99541.88;;;20.13;74.48
65666;BME280;52365;47.464;18.976;2022-09-09T01:36:57;99544.41;;;19.66;74.73
65666;BME280;52365;47.464;18.976;2022-09-09T01:37:26;99543.94;;;19.81;75.42
65666;BME280;52365;47.464;18.976;2022-09-09T01:38:03;99541.13;;;20.00;74.35
65666;BME280;52365;47.464;18.976;2022-09-09T01:38:39;99538.84;;;20.04;74.24
65666;BME280;52365;47.464;18.976;2022-09-09T01:39:16;99549.78;;;20.04;74.13
65666;BME280;52365;47.464;18.976;2022-09-09T01:39:52;99538.84;;;20.04;73.87
65666;BME280;52365;47.464;18.976;2022-09-09T01:40:28;99545.59;;;20.16;73.57
65666;BME280;52365;47.464;18.976;2022-09-09T01:41:05;99544.81;;;19.89;73.67
65666;BME280;52365;47.464;18.976;2022-09-09T01:41:41;99537.41;;;19.20;75.97
65666;BME280;52365;47.464;18.976;2022-09-09T01:42:17;99541.91;;;19.17;77.15
65666;BME280;52365;47.464;18.976;2022-09-09T01:42:54;99539.97;;;19.12;77.67
65666;BME280;52365;47.464;18.976;2022-09-09T01:43:31;99542.84;;;19.38;76.84
65666;BME280;52365;47.464;18.976;2022-09-09T01:44:07;99545.38;;;19.69;75.14
65666;BME280;52365;47.464;18.976;2022-09-09T01:44:44;99545.53;;;19.57;75.78
65666;BME280;52365;47.464;18.976;2022-09-09T01:45:21;99543.06;;;20.18;74.85
65666;BME280;52365;47.464;18.976;2022-09-09T01:46:00;99548.63;;;20.26;73.54
65666;BME280;52365;47.464;18.976;2022-09-09T01:46:37;99540.12;;;20.16;72.91
65666;BME280;52365;47.464;18.976;2022-09-09T01:47:14;99552.84;;;20.13;73.50
65666;BME280;52365;47.464;18.976;2022-09-09T01:47:52;99547.78;;;20.18;73.37
65666;BME280;52365;47.464;18.976;2022-09-09T01:48:29;99555.81;;;19.83;74.17
65666;BME280;52365;47.464;18.976;2022-09-09T01:49:07;99556.47;;;19.76;75.05
65666;BME280;52365;47.464;18.976;2022-09-09T01:49:44;99557.41;;;19.60;75.42
65666;BME280;52365;47.464;18.976;2022-09-09T01:50:20;99554.81;;;20.00;75.00
65666;BME280;52365;47.464;18.976;2022-09-09T01:50:57;99551.03;;;20.03;74.49
65666;BME280;52365;47.464;18.976;2022-09-09T01:51:34;99562.38;;;19.94;74.62
65666;BME280;52365;47.464;18.976;2022-09-09T01:52:10;99558.81;;;19.99;74.60
65666;BME280;52365;47.464;18.976;2022-09-09T01:52:50;99567.78;;;20.12;74.25
65666;BME280;52365;47.464;18.976;2022-09-09T01:53:28;99557.31;;;19.84;74.73
65666;BME280;52365;47.464;18.976;2022-09-09T01:54:05;99562.88;;;19.60;75.89
65666;BME280;52365;47.464;18.976;2022-09-09T01:54:42;99565.63;;;19.60;76.34
65666;BME280;52365;47.464;18.976;2022-09-09T01:55:28;99557.59;;;19.49;76.22
65666;BME280;52365;47.464;18.976;2022-09-09T01:56:16;99558.91;;;19.61;76.52
65666;BME280;52365;47.464;18.976;2022-09-09T01:58:11;99552.72;;;20.06;74.26
65666;BME280;52365;47.464;18.976;2022-09-09T02:00:08;99549.91;;;20.11;74.35
65666;BME280;52365;47.464;18.976;2022-09-09T02:01:16;99539.88;;;20.14;74.09
65666;BME280;52365;47.464;18.976;2022-09-09T02:03:12;99531.78;;;20.22;73.38
65666;BME280;52365;47.464;18.976;2022-09-09T02:03:57;99522.84;;;20.34;73.02
65666;BME280;52365;47.464;18.976;2022-09-09T02:06:05;99513.63;;;20.51;71.50
65666;BME280;52365;47.464;18.976;2022-09-09T02:06:48;99518.66;;;20.20;71.81
65666;BME280;52365;47.464;18.976;2022-09-09T02:07:46;99516.91;;;19.77;73.42
65666;BME280;52365;47.464;18.976;2022-09-09T02:08:29;99513.63;;;19.66;74.51
65666;BME280;52365;47.464;18.976;2022-09-09T02:09:10;99511.25;;;19.88;74.36
65666;BME280;52365;47.464;18.976;2022-09-09T02:09:54;99512.53;;;20.27;72.52
65666;BME280;52365;47.464;18.976;2022-09-09T02:10:44;99520.31;;;20.36;71.72
65666;BME280;52365;47.464;18.976;2022-09-09T02:11:25;99523.69;;;20.43;71.33
65666;BME280;52365;47.464;18.976;2022-09-09T02:12:10;99515.06;;;20.12;71.17
65666;BME280;52365;47.464;18.976;2022-09-09T02:12:53;99515.66;;;19.92;72.60
65666;BME280;52365;47.464;18.976;2022-09-09T02:13:33;99513.78;;;19.86;73.04
65666;BME280;52365;47.464;18.976;2022-09-09T02:14:22;99517.94;;;19.74;73.25
65666;BME280;52365;47.464;18.976;2022-09-09T02:15:05;99515.13;;;19.80;73.54
65666;BME280;52365;47.464;18.976;2022-09-09T02:16:21;99508.28;;;19.73;72.67
65666;BME280;52365;47.464;18.976;2022-09-09T02:17:02;99505.16;;;19.96;72.20
65666;BME280;52365;47.464;18.976;2022-09-09T02:17:40;99508.63;;;20.36;70.83
65666;BME280;52365;47.464;18.976;2022-09-09T02:18:24;99510.44;;;20.47;69.60
65666;BME280;52365;47.464;18.976;2022-09-09T02:19:51;99511.91;;;20.61;68.99
65666;BME280;52365;47.464;18.976;2022-09-09T02:20:29;99516.53;;;20.66;68.57
65666;BME280;52365;47.464;18.976;2022-09-09T02:21:09;99507.47;;;20.45;68.90
65666;BME280;52365;47.464;18.976;2022-09-09T02:21:47;99514.75;;;20.02;70.17
65666;BME280;52365;47.464;18.976;2022-09-09T02:22:25;99508.72;;;19.77;71.16
65666;BME280;52365;47.464;18.976;2022-09-09T02:23:04;99508.06;;;19.71;71.67
65666;BME280;52365;47.464;18.976;2022-09-09T02:23:42;99503.44;;;19.79;71.47
65666;BME280;52365;47.464;18.976;2022-09-09T02:24:18;99503.03;;;19.88;70.85
65666;BME280;52365;47.464;18.976;2022-09-09T02:24:57;99499.69;;;19.96;70.70
65666;BME280;52365;47.464;18.976;2022-09-09T02:25:36;99503.47;;;20.19;70.53
65666;BME280;52365;47.464;18.976;2022-09-09T02:26:13;99504.53;;;20.43;69.11
65666;BME280;52365;47.464;18.976;2022-09-09T02:26:57;99511.50;;;20.57;68.22
65666;BME280;52365;47.464;18.976;2022-09-09T02:27:34;99498.19;;;20.74;67.70
65666;BME280;52365;47.464;18.976;2022-09-09T02:28:12;99511.13;;;20.87;67.05
65666;BME280;52365;47.464;18.976;2022-09-09T02:28:51;99511.13;;;20.87;66.73
65666;BME280;52365;47.464;18.976;2022-09-09T02:29:33;99504.69;;;20.84;66.78
65666;BME280;52365;47.464;18.976;2022-09-09T02:30:10;99512.28;;;20.92;66.22
65666;BME280;52365;47.464;18.976;2022-09-09T02:30:49;99507.38;;;20.77;66.76
65666;BME280;52365;47.464;18.976;2022-09-09T02:31:32;99515.88;;;20.86;66.97
65666;BME280;52365;47.464;18.976;2022-09-09T02:32:14;99509.34;;;20.90;66.97
65666;BME280;52365;47.464;18.976;2022-09-09T02:32:54;99516.59;;;20.87;66.91
65666;BME280;52365;47.464;18.976;2022-09-09T02:33:40;99515.19;;;20.94;66.28
65666;BME280;52365;47.464;18.976;2022-09-09T02:34:18;99513.59;;;20.98;66.10
65666;BME280;52365;47.464;18.976;2022-09-09T02:35:00;99520.69;;;20.94;65.36
65666;BME280;52365;47.464;18.976;2022-09-09T02:35:39;99525.97;;;20.92;65.86
65666;BME280;52365;47.464;18.976;2022-09-09T02:36:16;99522.03;;;20.53;66.67
65666;BME280;52365;47.464;18.976;2022-09-09T02:36:53;99531.06;;;20.61;67.08
65666;BME280;52365;47.464;18.976;2022-09-09T02:37:39;99528.22;;;20.13;68.21
65666;BME280;52365;47.464;18.976;2022-09-09T02:38:16;99528.72;;;19.99;69.24
65666;BME280;52365;47.464;18.976;2022-09-09T02:38:53;99527.66;;;19.88;69.52
65666;BME280;52365;47.464;18.976;2022-09-09T02:39:30;99533.56;;;20.19;68.43
65666;BME280;52365;47.464;18.976;2022-09-09T02:40:09;99541.25;;;19.62;68.04
65666;BME280;52365;47.464;18.976;2022-09-09T02:40:46;99538.09;;;19.58;68.60
65666;BME280;52365;47.464;18.976;2022-09-09T02:41:37;99544.84;;;19.70;68.49
65666;BME280;52365;47.464;18.976;2022-09-09T02:42:13;99537.22;;;19.50;68.39
65666;BME280;52365;47.464;18.976;2022-09-09T02:42:50;99528.94;;;20.01;66.71
65666;BME280;52365;47.464;18.976;2022-09-09T02:43:31;99533.19;;;20.15;65.26
65666;BME280;52365;47.464;18.976;2022-09-09T02:44:12;99532.75;;;20.37;64.56
65666;BME280;52365;47.464;18.976;2022-09-09T02:44:48;99538.56;;;20.60;65.19
65666;BME280;52365;47.464;18.976;2022-09-09T02:45:27;99539.00;;;20.51;65.33
65666;BME280;52365;47.464;18.976;2022-09-09T02:48:18;99544.94;;;20.76;66.05
65666;BME280;52365;47.464;18.976;2022-09-09T02:49:09;99547.47;;;20.21;67.93
65666;BME280;52365;47.464;18.976;2022-09-09T02:50:13;99537.38;;;20.16;68.73
65666;BME280;52365;47.464;18.976;2022-09-09T02:51:08;99547.03;;;19.58;70.31
65666;BME280;52365;47.464;18.976;2022-09-09T02:53:17;99555.38;;;19.47;72.42
65666;BME280;52365;47.464;18.976;2022-09-09T02:54:09;99551.63;;;19.50;73.10
65666;BME280;52365;47.464;18.976;2022-09-09T02:54:47;99560.00;;;20.30;70.51
65666;BME280;52365;47.464;18.976;2022-09-09T02:56:17;99560.44;;;20.34;70.46
65666;BME280;52365;47.464;18.976;2022-09-09T02:56:57;99559.19;;;20.48;69.09
65666;BME280;52365;47.464;18.976;2022-09-09T02:57:38;99567.09;;;20.52;69.05
65666;BME280;52365;47.464;18.976;2022-09-09T02:58:17;99555.28;;;20.57;68.99
65666;BME280;52365;47.464;18.976;2022-09-09T02:58:54;99554.25;;;20.60;68.48
65666;BME280;52365;47.464;18.976;2022-09-09T02:59:30;99565.19;;;20.60;68.58
65666;BME280;52365;47.464;18.976;2022-09-09T03:00:07;99562.47;;;20.60;68.76
65666;BME280;52365;47.464;18.976;2022-09-09T03:00:46;99566.66;;;20.61;68.87
65666;BME280;52365;47.464;18.976;2022-09-09T03:01:23;99567.19;;;20.46;68.73
65666;BME280;52365;47.464;18.976;2022-09-09T03:01:59;99567.19;;;20.46;69.06
65666;BME280;52365;47.464;18.976;2022-09-09T03:02:35;99563.31;;;20.55;69.04
65666;BME280;52365;47.464;18.976;2022-09-09T03:03:12;99564.53;;;20.27;69.61
65666;BME280;52365;47.464;18.976;2022-09-09T03:03:48;99567.84;;;19.94;71.33
65666;BME280;52365;47.464;18.976;2022-09-09T03:04:24;99569.06;;;19.79;72.19
65666;BME280;52365;47.464;18.976;2022-09-09T03:05:00;99569.84;;;19.80;72.30
65666;BME280;52365;47.464;18.976;2022-09-09T03:05:36;99563.50;;;19.72;72.48
65666;BME280;52365;47.464;18.976;2022-09-09T03:06:13;99570.00;;;19.69;72.90
65666;BME280;52365;47.464;18.976;2022-09-09T03:06:50;99565.13;;;19.61;73.60
65666;BME280;52365;47.464;18.976;2022-09-09T03:07:26;99573.81;;;19.60;73.79
65666;BME280;52365;47.464;18.976;2022-09-09T03:08:03;99570.66;;;19.56;73.72
65666;BME280;52365;47.464;18.976;2022-09-09T03:08:40;99576.66;;;19.54;73.77
65666;BME280;52365;47.464;18.976;2022-09-09T03:09:16;99579.22;;;19.66;73.59
65666;BME280;52365;47.464;18.976;2022-09-09T03:09:52;99572.06;;;19.95;72.46
65666;BME280;52365;47.464;18.976;2022-09-09T03:10:29;99572.53;;;20.25;71.15
65666;BME280;52365;47.464;18.976;2022-09-09T03:11:06;99563.06;;;20.26;70.58
65666;BME280;52365;47.464;18.976;2022-09-09T03:11:43;99567.06;;;20.25;70.31
65666;BME280;52365;47.464;18.976;2022-09-09T03:12:19;99577.34;;;20.19;70.89
65666;BME280;52365;47.464;18.976;2022-09-09T03:12:56;99580.50;;;20.23;71.20
65666;BME280;52365;47.464;18.976;2022-09-09T03:13:32;99572.84;;;20.22;71.13
65666;BME280;52365;47.464;18.976;2022-09-09T03:14:09;99571.16;;;20.19;71.37
65666;BME280;52365;47.464;18.976;2022-09-09T03:14:47;99569.69;;;20.18;71.06
65666;BME280;52365;47.464;18.976;2022-09-09T03:15:23;99565.06;;;20.26;70.58
65666;BME280;52365;47.464;18.976;2022-09-09T03:15:59;99573.91;;;20.32;70.14
65666;BME280;52365;47.464;18.976;2022-09-09T03:16:35;99580.75;;;20.25;69.67
65666;BME280;52365;47.464;18.976;2022-09-09T03:17:11;99579.69;;;20.28;69.84
65666;BME280;52365;47.464;18.976;2022-09-09T03:17:47;99577.34;;;20.19;69.83
65666;BME280;52365;47.464;18.976;2022-09-09T03:18:24;99576.19;;;20.15;70.16
65666;BME280;52365;47.464;18.976;2022-09-09T03:19:01;99582.63;;;20.17;69.79
65666;BME280;52365;47.464;18.976;2022-09-09T03:19:37;99577.16;;;20.17;70.37
65666;BME280;52365;47.464;18.976;2022-09-09T03:20:13;99575.88;;;20.18;70.94
65666;BME280;52365;47.464;18.976;2022-09-09T03:20:49;99577.69;;;20.16;71.05
65666;BME280;52365;47.464;18.976;2022-09-09T03:21:26;99587.47;;;20.24;71.28
65666;BME280;52365;47.464;18.976;2022-09-09T03:22:03;99570.84;;;20.22;nan
65666;BME280;52365;47.464;18.976;2022-09-09T03:22:40;99586.81;;;20.18;70.76
65666;BME280;52365;47.464;18.976;2022-09-09T03:23:16;99568.78;;;19.96;70.86
65666;BME280;52365;47.464;18.976;2022-09-09T03:23:52;99575.41;;;19.87;71.98
65666;BME280;52365;47.464;18.976;2022-09-09T03:24:28;99584.69;;;19.98;72.25
65666;BME280;52365;47.464;18.976;2022-09-09T03:25:06;99580.59;;;20.04;71.83
65666;BME280;52365;47.464;18.976;2022-09-09T03:25:51;99580.09;;;20.19;71.44
65666;BME280;52365;47.464;18.976;2022-09-09T03:26:27;99576.94;;;20.15;71.06
65666;BME280;52365;47.464;18.976;2022-09-09T03:27:04;99577.34;;;20.19;71.14
65666;BME280;52365;47.464;18.976;2022-09-09T03:27:40;99583.06;;;20.21;70.83
65666;BME280;52365;47.464;18.976;2022-09-09T03:28:16;99578.41;;;20.16;70.57
65666;BME280;52365;47.464;18.976;2022-09-09T03:28:52;99575.25;;;20.12;70.47
65666;BME280;52365;47.464;18.976;2022-09-09T03:29:29;99573.03;;;20.10;71.11
65666;BME280;52365;47.464;18.976;2022-09-09T03:30:05;99580.50;;;20.10;71.16
65666;BME280;52365;47.464;18.976;2022-09-09T03:30:41;99577.56;;;20.08;71.24
65666;BME280;52365;47.464;18.976;2022-09-09T03:31:17;99575.66;;;20.03;71.54
65666;BME280;52365;47.464;18.976;2022-09-09T03:31:53;99577.88;;;20.04;71.53
65666;BME280;52365;47.464;18.976;2022-09-09T03:32:29;99575.84;;;19.92;71.61
65666;BME280;52365;47.464;18.976;2022-09-09T03:33:07;99575.63;;;19.90;71.89
65666;BME280;52365;47.464;18.976;2022-09-09T03:33:43;99568.59;;;19.94;72.04
65666;BME280;52365;47.464;18.976;2022-09-09T03:34:19;99577.81;;;19.78;72.35
65666;BME280;52365;47.464;18.976;2022-09-09T03:34:55;99577.84;;;19.40;73.40
65666;BME280;52365;47.464;18.976;2022-09-09T03:35:31;99568.19;;;19.20;74.38
65666;BME280;52365;47.464;18.976;2022-09-09T03:36:07;99570.75;;;19.12;75.21
65666;BME280;52365;47.464;18.976;2022-09-09T03:36:46;99562.22;;;19.03;75.49
65666;BME280;52365;47.464;18.976;2022-09-09T03:37:24;99575.94;;;18.97;75.88
65666;BME280;52365;47.464;18.976;2022-09-09T03:38:00;99568.56;;;19.11;75.50
65666;BME280;52365;47.464;18.976;2022-09-09T03:38:36;99567.22;;;18.99;75.87
65666;BME280;52365;47.464;18.976;2022-09-09T03:39:12;99570.62;;;19.24;75.39
65666;BME280;52365;47.464;18.976;2022-09-09T03:39:50;99573.78;;;19.47;74.59
65666;BME280;52365;47.464;18.976;2022-09-09T03:40:26;99570.59;;;19.43;74.53
65666;BME280;52365;47.464;18.976;2022-09-09T03:41:02;99569.97;;;19.36;75.00
65666;BME280;52365;47.464;18.976;2022-09-09T03:41:39;99571.81;;;19.28;74.86
65666;BME280;52365;47.464;18.976;2022-09-09T03:42:16;99573.34;;;19.43;74.31
65666;BME280;52365;47.464;18.976;2022-09-09T03:42:55;99573.38;;;19.56;73.88
65666;BME280;52365;47.464;18.976;2022-09-09T03:43:31;99571.91;;;19.55;73.29
65666;BME280;52365;47.464;18.976;2022-09-09T03:44:07;99575.94;;;18.97;74.40
65666;BME280;52365;47.464;18.976;2022-09-09T03:44:43;99578.34;;;18.82;75.82
65666;BME280;52365;47.464;18.976;2022-09-09T03:45:22;99572.31;;;18.70;77.01
65666;BME280;52365;47.464;18.976;2022-09-09T03:45:58;99575.03;;;18.65;77.66
65666;BME280;52365;47.464;18.976;2022-09-09T03:46:34;99576.31;;;18.63;77.93
65666;BME280;52365;47.464;18.976;2022-09-09T03:47:10;99569.22;;;18.79;77.31
65666;BME280;52365;47.464;18.976;2022-09-09T03:47:46;99567.66;;;19.03;76.16
65666;BME280;52365;47.464;18.976;2022-09-09T03:48:22;99572.41;;;19.02;75.40
65666;BME280;52365;47.464;18.976;2022-09-09T03:48:59;99569.25;;;18.74;76.45
65666;BME280;52365;47.464;18.976;2022-09-09T03:49:35;99570.38;;;18.59;77.48
65666;BME280;52365;47.464;18.976;2022-09-09T03:50:11;99584.38;;;18.50;77.78
65666;BME280;52365;47.464;18.976;2022-09-09T03:50:49;99593.34;;;18.75;77.17
65666;BME280;52365;47.464;18.976;2022-09-09T03:51:25;99584.03;;;18.59;77.45
65666;BME280;52365;47.464;18.976;2022-09-09T03:52:02;99581.94;;;18.47;77.49
65666;BME280;52365;47.464;18.976;2022-09-09T03:52:39;99589.28;;;18.33;77.50
65666;BME280;52365;47.464;18.976;2022-09-09T03:53:18;99592.56;;;18.26;78.08
65666;BME280;52365;47.464;18.976;2022-09-09T03:53:55;99591.81;;;18.25;78.32
65666;BME280;52365;47.464;18.976;2022-09-09T03:54:33;99596.53;;;18.25;78.66
65666;BME280;52365;47.464;18.976;2022-09-09T03:55:09;99596.03;;;18.26;79.03
65666;BME280;52365;47.464;18.976;2022-09-09T03:55:51;99589.06;;;18.31;79.33
65666;BME280;52365;47.464;18.976;2022-09-09T03:56:30;99584.56;;;18.58;78.54
65666;BME280;52365;47.464;18.976;2022-09-09T03:57:08;99579.63;;;19.00;76.81
65666;BME280;52365;47.464;18.976;2022-09-09T03:57:45;99581.94;;;19.15;75.03
65666;BME280;52365;47.464;18.976;2022-09-09T03:58:22;99585.88;;;19.70;72.76
65666;BME280;52365;47.464;18.976;2022-09-09T03:59:03;99586.09;;;19.72;72.01
65666;BME280;52365;47.464;18.976;2022-09-09T03:59:39;99580.69;;;19.67;71.83
65666;BME280;52365;47.464;18.976;2022-09-09T04:00:15;99580.50;;;19.65;71.98
65666;BME280;52365;47.464;18.976;2022-09-09T04:01:05;99582.31;;;19.56;72.32
65666;BME280;52365;47.464;18.976;2022-09-09T04:01:41;99580.84;;;19.55;72.80
65666;BME280;52365;47.464;18.976;2022-09-09T04:02:17;99586.09;;;19.53;73.28
65666;BME280;52365;47.464;18.976;2022-09-09T04:02:53;99595.56;;;19.52;73.56
65666;BME280;52365;47.464;18.976;2022-09-09T04:03:30;99591.88;;;19.50;73.53
65666;BME280;52365;47.464;18.976;2022-09-09T04:04:07;99584.47;;;19.45;73.92
65666;BME280;52365;47.464;18.976;2022-09-09T04:04:44;99589.66;;;19.48;74.25
65666;BME280;52365;47.464;18.976;2022-09-09T04:05:20;99586.41;;;19.50;74.23
65666;BME280;52365;47.464;18.976;2022-09-09T04:05:57;99585.69;;;19.49;73.98
65666;BME280;52365;47.464;18.976;2022-09-09T04:06:34;99588.69;;;19.46;73.69
65666;BME280;52365;47.464;18.976;2022-09-09T04:07:10;99590.56;;;19.37;73.72
65666;BME280;52365;47.464;18.976;2022-09-09T04:07:47;99585.62;;;19.36;74.10
65666;BME280;52365;47.464;18.976;2022-09-09T04:08:23;99593.06;;;19.35;74.02
65666;BME280;52365;47.464;18.976;2022-09-09T04:09:02;99591.00;;;19.42;74.12
65666;BME280;52365;47.464;18.976;2022-09-09T04:09:39;99594.47;;;19.42;73.69
65666;BME280;52365;47.464;18.976;2022-09-09T04:10:15;99590.75;;;19.40;73.69
65666;BME280;52365;47.464;18.976;2022-09-09T04:10:51;99587.00;;;19.43;73.78
65666;BME280;52365;47.464;18.976;2022-09-09T04:11:28;99586.78;;;19.41;73.61